Архив погоды в Майкопе

Метеограмма Майкоп
Среда, 25 Апреля
Время местн. Темп Ветер Видим Явления Облачность нижн/средн/верх Атм. давл. Влжн Точка росы ВНГО R Сост. почвы Tg s
Напр Скр Прв ур.ст ур.м изм
12:00 +21.1° С-З 2 - 20 км - переменная облачность 744 764 -0.5 31% +3.2° - - - - -
09:00 +14.6° Ю-В 1 - 20 км - облачно с прояснениями 745 764 +0.4 47% +3.4° более 2.5 км - - - -
06:00 +8.4° Ю,Ю-В 3 - 20 км - облачно с прояснениями 745 765 +0.2 63% +1.7° - - Сухая (без трещин) - -
03:00 +8.8° Ю,Ю-В 3 - 20 км - ясно 744 764 -0.4 61% +1.7° более 2.5 км - - - -
00:00 +11.2° Ю 3 - 20 км - ясно 745 765 -0.8 52% +1.6° более 2.5 км - - - -
Вторник, 24 Апреля
Время местн. Темп Ветер Видим Явления Облачность нижн/средн/верх Атм. давл. Влжн Точка росы ВНГО R Сост. почвы Tg s
Напр Скр Прв ур.ст ур.м изм
21:00 +12.1° Ю-В 1 - 20 км - переменная облачность 745 765 +0.2 53% +2.8° более 2.5 км - - - -
18:00 +17.8° С-З 2 - 20 км - ясно 745 765 +0.3 30% +0.2° более 2.5 км - - - -
15:00 +18.6° С-З 3 - 20 км - переменная облачность 746 765 +0.3 28% -0.3° 1.5 км - - - -
12:00 +17.3° С-З 3 - 20 км - ясно 747 766 +0.3 29% -0.7° более 2.5 км - - - -
09:00 +13.9° Ю,Ю-З 1 - 20 км - ясно 746 766 +1.2 52% +4.2° более 2.5 км - - - -
06:00 +6° Ю,Ю-В 3 - 20 км - ясно 745 765 +0.7 88% +4.2° более 2.5 км - Сухая (без трещин) - -
03:00 +7° Ю,Ю-В 2 - 20 км - ясно 744 764 +0.4 88% +5.1° более 2.5 км - - - -
00:00 +6.4° Ю,Ю-В 1 - 20 км - переменная облачность 744 764 +0.3 85% +4.1° - - - - -
Понедельник, 23 Апреля
Время местн. Темп Ветер Видим Явления Облачность нижн/средн/верх Атм. давл. Влжн Точка росы ВНГО R Сост. почвы Tg s
Напр Скр Прв ур.ст ур.м изм
21:00 +11.1° З 2 - 20 км - облачно 744 763 +1.3 66% +5° 1.5 км - - - -
18:00 +11.1° З 3 - 20 км - облачно 742 762 +2.3 74% +6.7° 1.5 км - - - -
15:00 +17.9° З 4 - 20 км - преимущественно облачно 740 759 -0.3 33% +1.5° 1.5 км - - - -
12:00 +18.2° З 4 10 20 км - преимущественно облачно 740 760 +0.1 33% +1.8° 1.5 км - - - -
09:00 +16.5° Ю-З 4 - 20 км - переменная облачность 741 760 +0.1 40% +3° 1.5 км - - - -
06:00 +9.6° Ю 2 - 20 км - переменная облачность 740 760 0 61% +2.5° более 2.5 км 0 Влажная (без луж) +5° -
03:00 +11.4° Ю,Ю-З 4 - 20 км - ясно 740 760 +0.1 51% +1.6° более 2.5 км - - - -
00:00 +11.1° Ю,Ю-З 3 - 20 км - ясно 741 760 +0.3 49% +0.8° более 2.5 км - - - -
Воскресенье, 22 Апреля
Время местн. Темп Ветер Видим Явления Облачность нижн/средн/верх Атм. давл. Влжн Точка росы ВНГО R Сост. почвы Tg s
Напр Скр Прв ур.ст ур.м изм
21:00 +12.5° Ю-З 4 - 20 км - переменная облачность 740 760 +1.3 48% +1.7° - - - - -
18:00 +14.7° Ю,Ю-З 5 16 20 км - преимущественно облачно 739 758 +0.5 41% +1.6° 1.5 км 0 - - -
15:00 +17.3° Ю-З 6 15 20 км - облачно с прояснениями 738 758 +0.1 36% +2.2° 1.5 км - - - -
12:00 +17.6° Ю-З 6 13 20 км - преимущественно облачно 738 758 -0.5 36% +2.4° 1.5 км - - - -
09:00 +15.1° Ю,Ю-З 4 - 20 км - облачно с прояснениями 739 758 -1.1 49% +4.4° более 2.5 км - - - -